sensor_id;sensor_type;location;lat;lon;timestamp;pressure;altitude;pressure_sealevel;temperature;humidity
63654;BME280;49809;47.418;19.080;2023-08-20T00:00:52;100791.09;;;20.33;100.00
63654;BME280;49809;47.418;19.080;2023-08-20T00:03:56;100790.56;;;20.31;100.00
63654;BME280;49809;47.418;19.080;2023-08-20T00:07:01;100787.88;;;20.31;100.00
63654;BME280;49809;47.418;19.080;2023-08-20T00:10:08;100787.09;;;20.30;100.00
63654;BME280;49809;47.418;19.080;2023-08-20T00:13:14;100782.78;;;20.29;100.00
63654;BME280;49809;47.418;19.080;2023-08-20T00:16:17;100788.78;;;20.26;100.00
63654;BME280;49809;47.418;19.080;2023-08-20T00:19:21;100791.28;;;20.23;100.00
63654;BME280;49809;47.418;19.080;2023-08-20T00:22:25;100781.44;;;20.18;100.00
63654;BME280;49809;47.418;19.080;2023-08-20T00:25:31;100779.34;;;20.15;100.00
63654;BME280;49809;47.418;19.080;2023-08-20T00:28:39;100781.22;;;20.15;100.00
63654;BME280;49809;47.418;19.080;2023-08-20T00:31:42;100771.38;;;20.10;100.00
63654;BME280;49809;47.418;19.080;2023-08-20T00:34:48;100773.59;;;20.08;100.00
63654;BME280;49809;47.418;19.080;2023-08-20T00:37:51;100772.28;;;20.06;100.00
63654;BME280;49809;47.418;19.080;2023-08-20T00:40:55;100770.41;;;20.06;100.00
63654;BME280;49809;47.418;19.080;2023-08-20T00:43:57;100774.19;;;20.05;100.00
63654;BME280;49809;47.418;19.080;2023-08-20T00:47:04;100776.41;;;20.03;100.00
63654;BME280;49809;47.418;19.080;2023-08-20T00:50:11;100770.03;;;19.99;100.00
63654;BME280;49809;47.418;19.080;2023-08-20T00:53:20;100778.41;;;19.98;100.00
63654;BME280;49809;47.418;19.080;2023-08-20T00:56:24;100776.00;;;19.96;100.00
63654;BME280;49809;47.418;19.080;2023-08-20T00:59:32;100778.22;;;19.94;100.00
63654;BME280;49809;47.418;19.080;2023-08-20T01:02:37;100778.50;;;19.92;100.00
63654;BME280;49809;47.418;19.080;2023-08-20T01:05:48;100772.63;;;19.90;100.00
63654;BME280;49809;47.418;19.080;2023-08-20T01:09:01;100782.56;;;19.90;100.00
63654;BME280;49809;47.418;19.080;2023-08-20T01:12:09;100785.56;;;19.88;100.00
63654;BME280;49809;47.418;19.080;2023-08-20T01:15:13;100783.78;;;19.84;100.00
63654;BME280;49809;47.418;19.080;2023-08-20T01:18:24;100781.91;;;19.84;100.00
63654;BME280;49809;47.418;19.080;2023-08-20T01:21:39;100787.56;;;19.83;100.00
63654;BME280;49809;47.418;19.080;2023-08-20T01:24:54;100786.59;;;19.79;100.00
63654;BME280;49809;47.418;19.080;2023-08-20T01:31:28;100786.37;;;19.75;100.00
63654;BME280;49809;47.418;19.080;2023-08-20T01:34:34;100779.44;;;19.74;100.00
63654;BME280;49809;47.418;19.080;2023-08-20T01:37:43;100787.78;;;19.73;100.00
63654;BME280;49809;47.418;19.080;2023-08-20T01:40:45;100786.50;;;19.70;100.00
63654;BME280;49809;47.418;19.080;2023-08-20T01:43:50;100792.16;;;19.69;100.00
63654;BME280;49809;47.418;19.080;2023-08-20T01:46:55;100788.50;;;19.65;100.00
63654;BME280;49809;47.418;19.080;2023-08-20T01:49:58;100785.81;;;19.65;100.00
63654;BME280;49809;47.418;19.080;2023-08-20T01:53:04;100781.00;;;19.62;100.00
63654;BME280;49809;47.418;19.080;2023-08-20T01:56:12;100791.75;;;19.62;100.00
63654;BME280;49809;47.418;19.080;2023-08-20T01:59:15;100785.59;;;19.61;100.00
63654;BME280;49809;47.418;19.080;2023-08-20T02:02:23;100785.91;;;19.60;100.00
63654;BME280;49809;47.418;19.080;2023-08-20T02:05:29;100787.28;;;19.57;100.00
63654;BME280;49809;47.418;19.080;2023-08-20T02:08:36;100787.59;;;19.56;100.00
63654;BME280;49809;47.418;19.080;2023-08-20T02:11:39;100790.88;;;19.52;100.00
63654;BME280;49809;47.418;19.080;2023-08-20T02:14:44;100794.16;;;19.49;100.00
63654;BME280;49809;47.418;19.080;2023-08-20T02:17:48;100792.56;;;19.48;100.00
63654;BME280;49809;47.418;19.080;2023-08-20T02:20:52;100792.56;;;19.48;100.00
63654;BME280;49809;47.418;19.080;2023-08-20T02:23:57;100784.00;;;19.46;100.00
63654;BME280;49809;47.418;19.080;2023-08-20T02:27:00;100785.13;;;19.45;100.00
63654;BME280;49809;47.418;19.080;2023-08-20T02:30:06;100783.50;;;19.44;100.00
63654;BME280;49809;47.418;19.080;2023-08-20T02:33:13;100774.66;;;19.44;100.00
63654;BME280;49809;47.418;19.080;2023-08-20T02:36:17;100777.34;;;19.44;100.00
63654;BME280;49809;47.418;19.080;2023-08-20T02:39:20;100767.41;;;19.44;100.00
63654;BME280;49809;47.418;19.080;2023-08-20T02:42:23;100775.25;;;19.41;100.00
63654;BME280;49809;47.418;19.080;2023-08-20T02:45:29;100776.91;;;19.37;100.00
63654;BME280;49809;47.418;19.080;2023-08-20T02:48:34;100771.84;;;19.35;100.00
63654;BME280;49809;47.418;19.080;2023-08-20T02:51:37;100779.41;;;19.33;100.00
63654;BME280;49809;47.418;19.080;2023-08-20T02:54:40;100774.31;;;19.32;100.00
63654;BME280;49809;47.418;19.080;2023-08-20T02:57:43;100775.63;;;19.34;100.00
63654;BME280;49809;47.418;19.080;2023-08-20T03:00:48;100781.59;;;19.31;100.00
63654;BME280;49809;47.418;19.080;2023-08-20T03:03:53;100787.53;;;19.28;100.00
63654;BME280;49809;47.418;19.080;2023-08-20T03:06:59;100782.19;;;19.28;100.00
63654;BME280;49809;47.418;19.080;2023-08-20T03:10:05;100789.22;;;19.24;100.00
63654;BME280;49809;47.418;19.080;2023-08-20T03:13:08;100790.63;;;19.22;100.00
63654;BME280;49809;47.418;19.080;2023-08-20T03:16:11;100794.69;;;19.19;100.00
63654;BME280;49809;47.418;19.080;2023-08-20T03:19:15;100789.13;;;19.16;100.00
63654;BME280;49809;47.418;19.080;2023-08-20T03:22:19;100785.94;;;19.14;100.00
63654;BME280;49809;47.418;19.080;2023-08-20T03:25:32;100790.50;;;19.13;100.00
63654;BME280;49809;47.418;19.080;2023-08-20T03:28:37;100788.94;;;19.12;100.00
63654;BME280;49809;47.418;19.080;2023-08-20T03:31:42;100787.62;;;19.09;100.00
63654;BME280;49809;47.418;19.080;2023-08-20T03:34:45;100797.56;;;19.09;100.00
63654;BME280;49809;47.418;19.080;2023-08-20T03:37:50;100797.06;;;19.07;100.00
63654;BME280;49809;47.418;19.080;2023-08-20T03:40:54;100800.84;;;19.06;100.00
63654;BME280;49809;47.418;19.080;2023-08-20T03:43:57;100799.25;;;19.05;100.00
63654;BME280;49809;47.418;19.080;2023-08-20T03:47:06;100799.84;;;19.02;100.00
63654;BME280;49809;47.418;19.080;2023-08-20T03:50:13;100808.38;;;19.04;100.00
63654;BME280;49809;47.418;19.080;2023-08-20T03:53:19;100814.34;;;19.01;100.00
63654;BME280;49809;47.418;19.080;2023-08-20T03:57:04;100807.38;;;19.00;100.00
63654;BME280;49809;47.418;19.080;2023-08-20T04:00:08;100812.75;;;19.00;100.00
63654;BME280;49809;47.418;19.080;2023-08-20T04:03:16;100816.22;;;19.00;100.00
63654;BME280;49809;47.418;19.080;2023-08-20T04:06:22;100811.56;;;19.06;100.00
63654;BME280;49809;47.418;19.080;2023-08-20T04:09:30;100820.41;;;19.06;100.00
63654;BME280;49809;47.418;19.080;2023-08-20T04:12:37;100816.34;;;19.09;100.00
63654;BME280;49809;47.418;19.080;2023-08-20T04:15:40;100824.31;;;19.14;100.00
63654;BME280;49809;47.418;19.080;2023-08-20T04:18:46;100827.69;;;19.20;100.00
63654;BME280;49809;47.418;19.080;2023-08-20T04:21:48;100828.97;;;19.22;100.00
63654;BME280;49809;47.418;19.080;2023-08-20T04:24:54;100825.41;;;19.27;100.00
63654;BME280;49809;47.418;19.080;2023-08-20T04:27:57;100823.16;;;19.34;100.00
63654;BME280;49809;47.418;19.080;2023-08-20T04:31:00;100819.47;;;19.43;100.00
63654;BME280;49809;47.418;19.080;2023-08-20T04:34:08;100828.97;;;19.55;100.00
63654;BME280;49809;47.418;19.080;2023-08-20T04:37:17;100836.94;;;19.60;100.00
63654;BME280;49809;47.418;19.080;2023-08-20T04:40:20;100833.53;;;19.68;100.00
63654;BME280;49809;47.418;19.080;2023-08-20T04:43:26;100834.72;;;19.75;100.00
63654;BME280;49809;47.418;19.080;2023-08-20T04:46:29;100834.22;;;19.87;100.00
63654;BME280;49809;47.418;19.080;2023-08-20T04:49:36;100844.25;;;19.95;100.00
63654;BME280;49809;47.418;19.080;2023-08-20T04:52:39;100846.84;;;20.00;100.00
63654;BME280;49809;47.418;19.080;2023-08-20T04:55:45;100835.78;;;20.15;100.00
63654;BME280;49809;47.418;19.080;2023-08-20T04:58:49;100836.06;;;20.27;100.00
63654;BME280;49809;47.418;19.080;2023-08-20T05:02:17;100836.97;;;20.36;100.00
63654;BME280;49809;47.418;19.080;2023-08-20T05:05:22;100846.59;;;20.51;100.00
63654;BME280;49809;47.418;19.080;2023-08-20T05:08:28;100841.09;;;20.56;100.00
63654;BME280;49809;47.418;19.080;2023-08-20T05:11:30;100847.91;;;20.62;100.00
63654;BME280;49809;47.418;19.080;2023-08-20T05:14:35;100841.53;;;20.72;100.00
63654;BME280;49809;47.418;19.080;2023-08-20T05:17:38;100837.47;;;20.83;100.00
63654;BME280;49809;47.418;19.080;2023-08-20T05:20:42;100842.00;;;20.96;100.00
63654;BME280;49809;47.418;19.080;2023-08-20T05:23:45;100846.31;;;21.06;100.00
63654;BME280;49809;47.418;19.080;2023-08-20T05:27:08;100841.84;;;21.15;100.00
63654;BME280;49809;47.418;19.080;2023-08-20T05:30:12;100846.97;;;21.25;100.00
63654;BME280;49809;47.418;19.080;2023-08-20T05:33:24;100850.16;;;21.36;100.00
63654;BME280;49809;47.418;19.080;2023-08-20T05:36:29;100851.63;;;21.42;100.00
63654;BME280;49809;47.418;19.080;2023-08-20T05:39:37;100852.47;;;21.51;100.00
63654;BME280;49809;47.418;19.080;2023-08-20T05:42:43;100865.53;;;21.66;100.00
63654;BME280;49809;47.418;19.080;2023-08-20T05:45:46;100874.59;;;21.79;100.00
63654;BME280;49809;47.418;19.080;2023-08-20T05:48:50;100874.16;;;21.85;100.00
63654;BME280;49809;47.418;19.080;2023-08-20T05:51:54;100880.25;;;21.99;100.00
63654;BME280;49809;47.418;19.080;2023-08-20T05:54:58;100880.44;;;22.12;100.00
63654;BME280;49809;47.418;19.080;2023-08-20T05:58:01;100878.06;;;22.19;100.00
63654;BME280;49809;47.418;19.080;2023-08-20T06:01:07;100876.22;;;22.36;100.00
63654;BME280;49809;47.418;19.080;2023-08-20T06:04:10;100883.81;;;22.43;98.86
63654;BME280;49809;47.418;19.080;2023-08-20T06:07:13;100882.72;;;22.52;96.62
63654;BME280;49809;47.418;19.080;2023-08-20T06:10:16;100887.66;;;22.59;94.73
63654;BME280;49809;47.418;19.080;2023-08-20T06:13:21;100882.91;;;22.73;94.07
63654;BME280;49809;47.418;19.080;2023-08-20T06:16:24;100888.94;;;22.87;92.57
63654;BME280;49809;47.418;19.080;2023-08-20T06:19:29;100890.50;;;23.06;92.30
63654;BME280;49809;47.418;19.080;2023-08-20T06:22:32;100886.84;;;23.19;92.27
63654;BME280;49809;47.418;19.080;2023-08-20T06:25:35;100885.69;;;23.37;92.44
63654;BME280;49809;47.418;19.080;2023-08-20T06:28:40;100893.91;;;23.49;91.07
63654;BME280;49809;47.418;19.080;2023-08-20T06:31:45;100879.38;;;23.71;90.75
63654;BME280;49809;47.418;19.080;2023-08-20T06:34:51;100887.75;;;23.87;90.81
63654;BME280;49809;47.418;19.080;2023-08-20T06:38:03;100888.31;;;24.01;90.41
63654;BME280;49809;47.418;19.080;2023-08-20T06:41:25;100883.44;;;24.15;88.71
63654;BME280;49809;47.418;19.080;2023-08-20T06:44:32;100885.13;;;24.28;87.05
63654;BME280;49809;47.418;19.080;2023-08-20T06:47:36;100884.94;;;24.33;87.01
63654;BME280;49809;47.418;19.080;2023-08-20T06:50:43;100876.38;;;24.52;85.98
63654;BME280;49809;47.418;19.080;2023-08-20T06:53:47;100882.19;;;24.62;85.37
63654;BME280;49809;47.418;19.080;2023-08-20T06:56:52;100878.19;;;24.81;84.96
63654;BME280;49809;47.418;19.080;2023-08-20T06:59:57;100888.75;;;24.94;85.12
63654;BME280;49809;47.418;19.080;2023-08-20T07:03:02;100879.69;;;25.11;83.30
63654;BME280;49809;47.418;19.080;2023-08-20T07:06:09;100890.13;;;25.33;80.97
63654;BME280;49809;47.418;19.080;2023-08-20T07:09:12;100887.66;;;25.40;80.50
63654;BME280;49809;47.418;19.080;2023-08-20T07:12:19;100895.38;;;25.63;78.80
63654;BME280;49809;47.418;19.080;2023-08-20T07:15:22;100895.28;;;25.71;79.00
63654;BME280;49809;47.418;19.080;2023-08-20T07:18:25;100885.91;;;25.93;79.49
63654;BME280;49809;47.418;19.080;2023-08-20T07:21:28;100895.41;;;26.23;77.23
63654;BME280;49809;47.418;19.080;2023-08-20T07:24:32;100893.12;;;26.37;75.95
63654;BME280;49809;47.418;19.080;2023-08-20T07:27:39;100892.88;;;26.43;74.70
63654;BME280;49809;47.418;19.080;2023-08-20T07:30:46;100895.47;;;26.91;74.33
63654;BME280;49809;47.418;19.080;2023-08-20T07:33:50;100896.28;;;27.07;72.09
63654;BME280;49809;47.418;19.080;2023-08-20T07:36:53;100896.12;;;27.32;70.97
63654;BME280;49809;47.418;19.080;2023-08-20T07:39:59;100900.56;;;27.52;69.69
63654;BME280;49809;47.418;19.080;2023-08-20T07:43:07;100891.72;;;27.55;69.60
63654;BME280;49809;47.418;19.080;2023-08-20T07:46:18;100894.75;;;28.00;68.58
63654;BME280;49809;47.418;19.080;2023-08-20T07:49:22;100886.78;;;27.92;65.24
63654;BME280;49809;47.418;19.080;2023-08-20T07:52:25;100893.72;;;28.59;66.23
63654;BME280;49809;47.418;19.080;2023-08-20T07:55:36;100893.47;;;28.83;62.23
63654;BME280;49809;47.418;19.080;2023-08-20T07:59:03;100887.22;;;29.25;62.26
63654;BME280;49809;47.418;19.080;2023-08-20T08:02:08;100889.13;;;29.66;61.21
63654;BME280;49809;47.418;19.080;2023-08-20T08:05:16;100898.13;;;30.19;59.37
63654;BME280;49809;47.418;19.080;2023-08-20T08:08:22;100893.28;;;30.65;58.15
63654;BME280;49809;47.418;19.080;2023-08-20T08:11:48;100891.88;;;31.12;55.79
63654;BME280;49809;47.418;19.080;2023-08-20T08:14:54;100888.97;;;31.79;51.85
63654;BME280;49809;47.418;19.080;2023-08-20T08:17:57;100896.03;;;31.87;52.27
63654;BME280;49809;47.418;19.080;2023-08-20T08:21:21;100893.56;;;32.22;50.26
63654;BME280;49809;47.418;19.080;2023-08-20T08:24:25;100890.28;;;32.71;48.06
63654;BME280;49809;47.418;19.080;2023-08-20T08:27:28;100890.75;;;33.12;46.61
63654;BME280;49809;47.418;19.080;2023-08-20T08:30:38;100899.06;;;33.44;45.47
63654;BME280;49809;47.418;19.080;2023-08-20T08:33:44;100890.75;;;34.12;45.57
63654;BME280;49809;47.418;19.080;2023-08-20T08:36:49;100893.84;;;34.42;43.16
63654;BME280;49809;47.418;19.080;2023-08-20T08:39:54;100897.31;;;34.57;46.37
63654;BME280;49809;47.418;19.080;2023-08-20T08:42:58;100900.34;;;34.83;41.98
63654;BME280;49809;47.418;19.080;2023-08-20T08:46:07;100904.69;;;35.43;41.94
63654;BME280;49809;47.418;19.080;2023-08-20T08:49:15;100894.72;;;35.56;40.53
63654;BME280;49809;47.418;19.080;2023-08-20T08:52:18;100901.28;;;36.14;39.52
63654;BME280;49809;47.418;19.080;2023-08-20T08:55:24;100889.75;;;36.26;39.52
63654;BME280;49809;47.418;19.080;2023-08-20T08:58:27;100897.06;;;36.36;40.43
63654;BME280;49809;47.418;19.080;2023-08-20T09:01:37;100900.25;;;36.69;38.26
63654;BME280;49809;47.418;19.080;2023-08-20T09:04:42;100898.59;;;37.28;38.28
63654;BME280;49809;47.418;19.080;2023-08-20T09:08:06;100897.75;;;37.08;37.53
63654;BME280;49809;47.418;19.080;2023-08-20T09:11:13;100898.31;;;37.69;38.54
63654;BME280;49809;47.418;19.080;2023-08-20T09:14:45;100899.84;;;37.94;37.28
63654;BME280;49809;47.418;19.080;2023-08-20T09:18:10;100902.59;;;37.74;36.51
63654;BME280;49809;47.418;19.080;2023-08-20T09:21:33;100894.25;;;37.97;36.17
63654;BME280;49809;47.418;19.080;2023-08-20T09:29:10;100894.87;;;38.08;36.12
63654;BME280;49809;47.418;19.080;2023-08-20T09:32:25;100903.94;;;38.09;35.06
63654;BME280;49809;47.418;19.080;2023-08-20T09:35:32;100902.72;;;38.49;35.27
63654;BME280;49809;47.418;19.080;2023-08-20T09:38:36;100903.81;;;39.07;34.72
63654;BME280;49809;47.418;19.080;2023-08-20T09:41:46;100909.38;;;39.07;33.36
63654;BME280;49809;47.418;19.080;2023-08-20T09:44:54;100902.69;;;38.89;32.53
63654;BME280;49809;47.418;19.080;2023-08-20T09:52:31;100898.56;;;38.97;34.46
63654;BME280;49809;47.418;19.080;2023-08-20T09:55:47;100893.97;;;38.70;33.62
63654;BME280;49809;47.418;19.080;2023-08-20T09:59:01;100894.19;;;38.44;35.88
63654;BME280;49809;47.418;19.080;2023-08-20T10:02:40;100894.84;;;39.20;35.00
63654;BME280;49809;47.418;19.080;2023-08-20T10:05:48;100890.69;;;39.60;33.41
63654;BME280;49809;47.418;19.080;2023-08-20T10:08:53;100892.34;;;40.15;32.97
63654;BME280;49809;47.418;19.080;2023-08-20T10:12:01;100884.03;;;39.25;33.66
63654;BME280;49809;47.418;19.080;2023-08-20T10:15:08;100887.81;;;40.09;32.64
63654;BME280;49809;47.418;19.080;2023-08-20T10:18:13;100883.91;;;40.06;32.62
63654;BME280;49809;47.418;19.080;2023-08-20T10:21:17;100876.50;;;39.26;33.84
63654;BME280;49809;47.418;19.080;2023-08-20T10:24:23;100871.44;;;39.69;31.91
63654;BME280;49809;47.418;19.080;2023-08-20T10:27:36;100876.66;;;39.51;31.71
63654;BME280;49809;47.418;19.080;2023-08-20T10:34:09;100865.84;;;38.36;34.44
63654;BME280;49809;47.418;19.080;2023-08-20T10:37:12;100870.19;;;38.17;35.47
63654;BME280;49809;47.418;19.080;2023-08-20T10:44:14;100855.91;;;37.79;36.21
63654;BME280;49809;47.418;19.080;2023-08-20T10:47:21;100866.06;;;38.45;34.37
63654;BME280;49809;47.418;19.080;2023-08-20T10:50:29;100866.66;;;38.17;33.28
63654;BME280;49809;47.418;19.080;2023-08-20T10:53:40;100864.31;;;38.71;33.18
63654;BME280;49809;47.418;19.080;2023-08-20T10:59:58;100854.88;;;39.37;32.12
63654;BME280;49809;47.418;19.080;2023-08-20T11:03:20;100846.19;;;39.02;31.53
63654;BME280;49809;47.418;19.080;2023-08-20T11:06:26;100856.72;;;38.75;32.59
63654;BME280;49809;47.418;19.080;2023-08-20T11:09:33;100843.53;;;38.27;33.35
63654;BME280;49809;47.418;19.080;2023-08-20T11:12:39;100847.59;;;39.10;31.35
63654;BME280;49809;47.418;19.080;2023-08-20T11:15:45;100848.34;;;39.60;31.58
63654;BME280;49809;47.418;19.080;2023-08-20T11:18:52;100848.38;;;39.88;31.09
63654;BME280;49809;47.418;19.080;2023-08-20T11:21:56;100847.31;;;40.11;31.09
63654;BME280;49809;47.418;19.080;2023-08-20T11:24:59;100844.03;;;39.87;28.97
63654;BME280;49809;47.418;19.080;2023-08-20T11:28:09;100839.12;;;39.34;29.36
63654;BME280;49809;47.418;19.080;2023-08-20T11:31:15;100841.22;;;40.04;28.41
63654;BME280;49809;47.418;19.080;2023-08-20T11:34:20;100841.53;;;39.48;28.43
63654;BME280;49809;47.418;19.080;2023-08-20T11:37:26;100833.41;;;39.08;30.82
63654;BME280;49809;47.418;19.080;2023-08-20T11:40:30;100834.88;;;38.45;32.05
63654;BME280;49809;47.418;19.080;2023-08-20T11:43:33;100827.53;;;38.18;32.59
63654;BME280;49809;47.418;19.080;2023-08-20T11:46:43;100826.50;;;39.00;31.13
63654;BME280;49809;47.418;19.080;2023-08-20T11:49:46;100822.56;;;39.30;31.52
63654;BME280;49809;47.418;19.080;2023-08-20T11:52:49;100819.03;;;39.75;29.94
63654;BME280;49809;47.418;19.080;2023-08-20T11:56:16;100822.63;;;40.29;30.40
63654;BME280;49809;47.418;19.080;2023-08-20T11:59:20;100820.88;;;40.99;29.79
63654;BME280;49809;47.418;19.080;2023-08-20T12:02:27;100809.87;;;41.08;27.22
63654;BME280;49809;47.418;19.080;2023-08-20T12:05:48;100820.28;;;41.63;26.15
63654;BME280;49809;47.418;19.080;2023-08-20T12:08:50;100808.81;;;41.61;28.19
63654;BME280;49809;47.418;19.080;2023-08-20T12:11:54;100810.16;;;41.79;27.25
63654;BME280;49809;47.418;19.080;2023-08-20T12:15:04;100813.09;;;41.41;26.06
63654;BME280;49809;47.418;19.080;2023-08-20T12:18:14;100798.47;;;40.55;28.84
63654;BME280;49809;47.418;19.080;2023-08-20T12:24:59;100797.88;;;40.48;29.17
63654;BME280;49809;47.418;19.080;2023-08-20T12:28:03;100803.37;;;39.39;30.37
63654;BME280;49809;47.418;19.080;2023-08-20T12:31:10;100795.72;;;40.14;30.78
63654;BME280;49809;47.418;19.080;2023-08-20T12:34:15;100798.22;;;37.62;32.92
63654;BME280;49809;47.418;19.080;2023-08-20T12:37:21;100793.34;;;37.89;33.57
63654;BME280;49809;47.418;19.080;2023-08-20T12:40:32;100798.31;;;37.78;32.05
63654;BME280;49809;47.418;19.080;2023-08-20T12:43:35;100798.38;;;37.55;33.51
63654;BME280;49809;47.418;19.080;2023-08-20T12:46:38;100796.09;;;37.26;33.24
63654;BME280;49809;47.418;19.080;2023-08-20T12:49:41;100788.88;;;37.09;34.21
63654;BME280;49809;47.418;19.080;2023-08-20T12:52:44;100787.75;;;35.92;36.23
63654;BME280;49809;47.418;19.080;2023-08-20T12:55:50;100785.75;;;36.27;34.61
63654;BME280;49809;47.418;19.080;2023-08-20T12:58:53;100789.56;;;36.06;37.58
63654;BME280;49809;47.418;19.080;2023-08-20T13:01:57;100778.25;;;35.97;38.13
63654;BME280;49809;47.418;19.080;2023-08-20T13:05:03;100784.75;;;35.80;36.70
63654;BME280;49809;47.418;19.080;2023-08-20T13:08:08;100780.41;;;35.41;38.31
63654;BME280;49809;47.418;19.080;2023-08-20T13:11:17;100767.91;;;35.33;37.52
63654;BME280;49809;47.418;19.080;2023-08-20T13:14:23;100775.13;;;35.13;36.48
63654;BME280;49809;47.418;19.080;2023-08-20T13:17:30;100767.66;;;35.17;35.73
63654;BME280;49809;47.418;19.080;2023-08-20T13:20:35;100762.22;;;35.10;38.45
63654;BME280;49809;47.418;19.080;2023-08-20T13:23:38;100768.19;;;34.98;36.58
63654;BME280;49809;47.418;19.080;2023-08-20T13:26:44;100770.13;;;35.01;36.88
63654;BME280;49809;47.418;19.080;2023-08-20T13:30:21;100773.38;;;34.88;37.35
63654;BME280;49809;47.418;19.080;2023-08-20T13:33:29;100760.94;;;35.21;37.36
63654;BME280;49809;47.418;19.080;2023-08-20T13:36:34;100761.12;;;34.97;38.07
63654;BME280;49809;47.418;19.080;2023-08-20T13:39:44;100761.12;;;34.97;39.26
63654;BME280;49809;47.418;19.080;2023-08-20T13:42:49;100761.34;;;34.68;38.67
63654;BME280;49809;47.418;19.080;2023-08-20T13:46:15;100752.34;;;34.57;38.29
63654;BME280;49809;47.418;19.080;2023-08-20T13:49:21;100752.75;;;34.59;39.60
63654;BME280;49809;47.418;19.080;2023-08-20T13:52:25;100746.59;;;34.41;38.94
63654;BME280;49809;47.418;19.080;2023-08-20T13:55:28;100752.94;;;34.31;40.43
63654;BME280;49809;47.418;19.080;2023-08-20T13:58:34;100752.97;;;34.20;40.77
63654;BME280;49809;47.418;19.080;2023-08-20T14:01:59;100747.12;;;34.11;42.34
63654;BME280;49809;47.418;19.080;2023-08-20T14:05:06;100742.44;;;34.08;40.88
63654;BME280;49809;47.418;19.080;2023-08-20T14:08:11;100738.56;;;33.91;41.25
63654;BME280;49809;47.418;19.080;2023-08-20T14:11:20;100735.78;;;34.02;43.47
63654;BME280;49809;47.418;19.080;2023-08-20T14:14:33;100737.41;;;33.85;42.75
63654;BME280;49809;47.418;19.080;2023-08-20T14:17:40;100734.34;;;33.69;43.06
63654;BME280;49809;47.418;19.080;2023-08-20T14:20:43;100742.94;;;33.60;42.56
63654;BME280;49809;47.418;19.080;2023-08-20T14:23:46;100740.56;;;33.87;42.72
63654;BME280;49809;47.418;19.080;2023-08-20T14:26:52;100736.66;;;33.81;41.52
63654;BME280;49809;47.418;19.080;2023-08-20T14:29:57;100735.47;;;33.75;39.76
63654;BME280;49809;47.418;19.080;2023-08-20T14:33:04;100741.38;;;33.74;41.13
63654;BME280;49809;47.418;19.080;2023-08-20T14:36:08;100732.78;;;33.68;41.11
63654;BME280;49809;47.418;19.080;2023-08-20T14:39:11;100734.69;;;33.78;40.85
63654;BME280;49809;47.418;19.080;2023-08-20T14:42:16;100734.31;;;33.66;40.75
63654;BME280;49809;47.418;19.080;2023-08-20T14:45:19;100733.94;;;33.56;39.48
63654;BME280;49809;47.418;19.080;2023-08-20T14:48:25;100730.41;;;33.56;40.39
63654;BME280;49809;47.418;19.080;2023-08-20T14:51:28;100733.19;;;33.42;41.81
63654;BME280;49809;47.418;19.080;2023-08-20T14:54:32;100728.13;;;33.44;41.40
63654;BME280;49809;47.418;19.080;2023-08-20T14:57:35;100725.72;;;33.53;41.43
63654;BME280;49809;47.418;19.080;2023-08-20T15:00:57;100726.94;;;33.45;40.74
63654;BME280;49809;47.418;19.080;2023-08-20T15:04:01;100730.09;;;33.40;44.25
63654;BME280;49809;47.418;19.080;2023-08-20T15:07:06;100726.53;;;33.43;43.09
63654;BME280;49809;47.418;19.080;2023-08-20T15:10:11;100731.97;;;33.64;41.82
63654;BME280;49809;47.418;19.080;2023-08-20T15:13:15;100725.69;;;33.74;42.52
63654;BME280;49809;47.418;19.080;2023-08-20T15:16:17;100735.87;;;33.70;42.84
63654;BME280;49809;47.418;19.080;2023-08-20T15:19:21;100720.69;;;33.30;42.89
63654;BME280;49809;47.418;19.080;2023-08-20T15:22:23;100724.94;;;33.56;42.16
63654;BME280;49809;47.418;19.080;2023-08-20T15:25:30;100723.00;;;33.46;42.16
63654;BME280;49809;47.418;19.080;2023-08-20T15:28:34;100725.75;;;33.49;41.61
63654;BME280;49809;47.418;19.080;2023-08-20T15:31:37;100719.50;;;33.28;42.93
63654;BME280;49809;47.418;19.080;2023-08-20T15:34:47;100710.50;;;33.24;42.40
63654;BME280;49809;47.418;19.080;2023-08-20T15:37:52;100714.81;;;33.10;42.32
63654;BME280;49809;47.418;19.080;2023-08-20T15:40:58;100713.25;;;33.06;40.65
63654;BME280;49809;47.418;19.080;2023-08-20T15:44:02;100706.22;;;32.87;41.19
63654;BME280;49809;47.418;19.080;2023-08-20T15:47:08;100716.78;;;32.78;41.69
63654;BME280;49809;47.418;19.080;2023-08-20T15:50:11;100718.34;;;32.93;41.51
63654;BME280;49809;47.418;19.080;2023-08-20T15:53:19;100718.69;;;32.60;41.86
63654;BME280;49809;47.418;19.080;2023-08-20T15:56:22;100708.94;;;32.69;42.59
63654;BME280;49809;47.418;19.080;2023-08-20T15:59:26;100708.56;;;32.85;41.59
63654;BME280;49809;47.418;19.080;2023-08-20T16:02:29;100718.34;;;32.86;41.83
63654;BME280;49809;47.418;19.080;2023-08-20T16:05:33;100714.81;;;32.75;43.32
63654;BME280;49809;47.418;19.080;2023-08-20T16:08:45;100712.03;;;32.54;43.40
63654;BME280;49809;47.418;19.080;2023-08-20T16:11:48;100719.47;;;32.50;42.33
63654;BME280;49809;47.418;19.080;2023-08-20T16:14:50;100718.63;;;32.17;43.92
63654;BME280;49809;47.418;19.080;2023-08-20T16:17:58;100717.78;;;32.10;45.00
63654;BME280;49809;47.418;19.080;2023-08-20T16:21:21;100720.91;;;32.05;44.16
63654;BME280;49809;47.418;19.080;2023-08-20T16:24:25;100726.00;;;32.06;44.84